sensor_id;sensor_type;location;lat;lon;timestamp;P1;durP1;ratioP1;P2;durP2;ratioP2
47431;SDS011;33183;52.290;6.144;2022-12-10T00:01:42;8.05;;;6.90;;
47431;SDS011;33183;52.290;6.144;2022-12-10T00:04:09;9.50;;;6.95;;
47431;SDS011;33183;52.290;6.144;2022-12-10T00:06:35;8.60;;;6.90;;
47431;SDS011;33183;52.290;6.144;2022-12-10T00:09:02;8.10;;;6.10;;
47431;SDS011;33183;52.290;6.144;2022-12-10T00:11:29;8.15;;;6.40;;
47431;SDS011;33183;52.290;6.144;2022-12-10T00:13:54;7.72;;;6.30;;
47431;SDS011;33183;52.290;6.144;2022-12-10T00:16:21;7.40;;;6.32;;
47431;SDS011;33183;52.290;6.144;2022-12-10T00:18:47;8.48;;;6.85;;
47431;SDS011;33183;52.290;6.144;2022-12-10T00:21:15;8.55;;;6.75;;
47431;SDS011;33183;52.290;6.144;2022-12-10T00:23:42;7.53;;;6.13;;
47431;SDS011;33183;52.290;6.144;2022-12-10T00:26:09;7.10;;;6.15;;
47431;SDS011;33183;52.290;6.144;2022-12-10T00:28:39;9.25;;;6.93;;
47431;SDS011;33183;52.290;6.144;2022-12-10T00:31:15;8.65;;;6.57;;
47431;SDS011;33183;52.290;6.144;2022-12-10T00:33:50;7.45;;;6.28;;
47431;SDS011;33183;52.290;6.144;2022-12-10T00:36:19;7.78;;;6.00;;
47431;SDS011;33183;52.290;6.144;2022-12-10T00:38:47;8.85;;;7.03;;
47431;SDS011;33183;52.290;6.144;2022-12-10T00:41:12;8.32;;;6.95;;
47431;SDS011;33183;52.290;6.144;2022-12-10T00:43:38;6.65;;;5.88;;
47431;SDS011;33183;52.290;6.144;2022-12-10T00:46:03;8.15;;;6.30;;
47431;SDS011;33183;52.290;6.144;2022-12-10T00:48:29;14.88;;;6.38;;
47431;SDS011;33183;52.290;6.144;2022-12-10T00:50:58;8.10;;;6.18;;
47431;SDS011;33183;52.290;6.144;2022-12-10T00:55:49;9.20;;;6.93;;
47431;SDS011;33183;52.290;6.144;2022-12-10T00:58:15;7.85;;;6.60;;
47431;SDS011;33183;52.290;6.144;2022-12-10T01:00:40;7.22;;;5.97;;
47431;SDS011;33183;52.290;6.144;2022-12-10T01:03:06;8.20;;;6.65;;
47431;SDS011;33183;52.290;6.144;2022-12-10T01:05:31;8.68;;;5.75;;
47431;SDS011;33183;52.290;6.144;2022-12-10T01:07:56;6.68;;;5.57;;
47431;SDS011;33183;52.290;6.144;2022-12-10T01:10:22;8.07;;;6.80;;
47431;SDS011;33183;52.290;6.144;2022-12-10T01:12:47;8.88;;;6.05;;
47431;SDS011;33183;52.290;6.144;2022-12-10T01:15:12;7.25;;;5.93;;
47431;SDS011;33183;52.290;6.144;2022-12-10T01:17:38;7.13;;;5.95;;
47431;SDS011;33183;52.290;6.144;2022-12-10T01:20:03;8.10;;;6.22;;
47431;SDS011;33183;52.290;6.144;2022-12-10T01:22:28;7.82;;;6.22;;
47431;SDS011;33183;52.290;6.144;2022-12-10T01:24:54;8.20;;;6.35;;
47431;SDS011;33183;52.290;6.144;2022-12-10T01:27:19;7.50;;;5.70;;
47431;SDS011;33183;52.290;6.144;2022-12-10T01:29:44;8.05;;;6.47;;
47431;SDS011;33183;52.290;6.144;2022-12-10T01:32:10;7.07;;;5.97;;
47431;SDS011;33183;52.290;6.144;2022-12-10T01:34:35;7.88;;;6.30;;
47431;SDS011;33183;52.290;6.144;2022-12-10T01:37:00;6.93;;;5.60;;
47431;SDS011;33183;52.290;6.144;2022-12-10T01:39:25;8.40;;;5.97;;
47431;SDS011;33183;52.290;6.144;2022-12-10T01:41:53;7.30;;;5.78;;
47431;SDS011;33183;52.290;6.144;2022-12-10T01:46:45;7.68;;;6.35;;
47431;SDS011;33183;52.290;6.144;2022-12-10T01:49:17;7.82;;;6.20;;
47431;SDS011;33183;52.290;6.144;2022-12-10T01:51:47;6.78;;;5.78;;
47431;SDS011;33183;52.290;6.144;2022-12-10T01:54:16;6.53;;;5.72;;
47431;SDS011;33183;52.290;6.144;2022-12-10T01:56:45;7.40;;;5.40;;
47431;SDS011;33183;52.290;6.144;2022-12-10T01:59:11;8.18;;;5.78;;
47431;SDS011;33183;52.290;6.144;2022-12-10T02:01:45;7.78;;;5.70;;
47431;SDS011;33183;52.290;6.144;2022-12-10T02:04:29;7.35;;;5.82;;
47431;SDS011;33183;52.290;6.144;2022-12-10T02:12:20;6.38;;;5.68;;
47431;SDS011;33183;52.290;6.144;2022-12-10T02:14:54;7.55;;;5.57;;
47431;SDS011;33183;52.290;6.144;2022-12-10T02:20:04;7.85;;;5.43;;
47431;SDS011;33183;52.290;6.144;2022-12-10T02:31:10;7.20;;;5.95;;
47431;SDS011;33183;52.290;6.144;2022-12-10T02:33:38;6.88;;;5.50;;
47431;SDS011;33183;52.290;6.144;2022-12-10T02:36:07;6.30;;;5.40;;
47431;SDS011;33183;52.290;6.144;2022-12-10T02:38:35;7.03;;;5.85;;
47431;SDS011;33183;52.290;6.144;2022-12-10T02:41:04;6.53;;;5.82;;
47431;SDS011;33183;52.290;6.144;2022-12-10T02:43:31;6.78;;;6.07;;
47431;SDS011;33183;52.290;6.144;2022-12-10T02:45:58;6.60;;;5.80;;
47431;SDS011;33183;52.290;6.144;2022-12-10T02:48:24;6.47;;;5.35;;
47431;SDS011;33183;52.290;6.144;2022-12-10T02:50:50;6.75;;;5.80;;
47431;SDS011;33183;52.290;6.144;2022-12-10T02:53:15;8.32;;;5.95;;
47431;SDS011;33183;52.290;6.144;2022-12-10T02:58:29;6.80;;;5.50;;
47431;SDS011;33183;52.290;6.144;2022-12-10T03:01:15;6.65;;;5.35;;
47431;SDS011;33183;52.290;6.144;2022-12-10T03:03:50;5.63;;;4.90;;
47431;SDS011;33183;52.290;6.144;2022-12-10T03:06:27;6.60;;;5.32;;
47431;SDS011;33183;52.290;6.144;2022-12-10T03:11:30;6.63;;;5.22;;
47431;SDS011;33183;52.290;6.144;2022-12-10T03:14:13;6.18;;;5.07;;
47431;SDS011;33183;52.290;6.144;2022-12-10T03:16:45;8.70;;;5.95;;
47431;SDS011;33183;52.290;6.144;2022-12-10T03:19:16;6.63;;;5.35;;
47431;SDS011;33183;52.290;6.144;2022-12-10T03:21:44;5.30;;;4.80;;
47431;SDS011;33183;52.290;6.144;2022-12-10T03:24:11;5.97;;;5.30;;
47431;SDS011;33183;52.290;6.144;2022-12-10T03:26:37;8.07;;;5.45;;
47431;SDS011;33183;52.290;6.144;2022-12-10T03:29:05;6.93;;;5.57;;
47431;SDS011;33183;52.290;6.144;2022-12-10T03:31:32;6.32;;;4.93;;
47431;SDS011;33183;52.290;6.144;2022-12-10T03:33:59;5.93;;;5.07;;
47431;SDS011;33183;52.290;6.144;2022-12-10T03:36:24;6.40;;;5.75;;
47431;SDS011;33183;52.290;6.144;2022-12-10T03:38:50;6.40;;;5.05;;
47431;SDS011;33183;52.290;6.144;2022-12-10T03:41:16;8.10;;;5.40;;
47431;SDS011;33183;52.290;6.144;2022-12-10T03:43:57;7.75;;;6.13;;
47431;SDS011;33183;52.290;6.144;2022-12-10T03:46:24;6.00;;;5.05;;
47431;SDS011;33183;52.290;6.144;2022-12-10T03:48:51;5.85;;;5.25;;
47431;SDS011;33183;52.290;6.144;2022-12-10T03:51:17;5.93;;;5.22;;
47431;SDS011;33183;52.290;6.144;2022-12-10T03:53:43;6.68;;;5.97;;
47431;SDS011;33183;52.290;6.144;2022-12-10T03:56:08;6.47;;;5.10;;
47431;SDS011;33183;52.290;6.144;2022-12-10T03:58:34;6.20;;;5.35;;
47431;SDS011;33183;52.290;6.144;2022-12-10T04:00:59;6.25;;;5.07;;
47431;SDS011;33183;52.290;6.144;2022-12-10T04:03:24;6.13;;;5.50;;
47431;SDS011;33183;52.290;6.144;2022-12-10T04:05:50;6.97;;;5.63;;
47431;SDS011;33183;52.290;6.144;2022-12-10T04:08:15;6.15;;;5.00;;
47431;SDS011;33183;52.290;6.144;2022-12-10T04:10:40;5.95;;;5.22;;
47431;SDS011;33183;52.290;6.144;2022-12-10T04:13:05;5.95;;;5.03;;
47431;SDS011;33183;52.290;6.144;2022-12-10T04:16:09;6.03;;;4.97;;
47431;SDS011;33183;52.290;6.144;2022-12-10T04:18:53;5.40;;;4.70;;
47431;SDS011;33183;52.290;6.144;2022-12-10T04:21:19;6.05;;;5.15;;
47431;SDS011;33183;52.290;6.144;2022-12-10T04:24:03;5.85;;;5.03;;
47431;SDS011;33183;52.290;6.144;2022-12-10T04:26:48;6.93;;;5.47;;
47431;SDS011;33183;52.290;6.144;2022-12-10T04:29:21;5.25;;;4.57;;
47431;SDS011;33183;52.290;6.144;2022-12-10T04:31:51;6.03;;;4.68;;
47431;SDS011;33183;52.290;6.144;2022-12-10T04:34:16;5.97;;;5.15;;
47431;SDS011;33183;52.290;6.144;2022-12-10T04:36:42;6.53;;;5.47;;
47431;SDS011;33183;52.290;6.144;2022-12-10T04:39:07;7.72;;;5.53;;
47431;SDS011;33183;52.290;6.144;2022-12-10T04:41:32;6.43;;;5.00;;
47431;SDS011;33183;52.290;6.144;2022-12-10T04:43:58;7.13;;;5.40;;
47431;SDS011;33183;52.290;6.144;2022-12-10T04:46:23;6.38;;;5.25;;
47431;SDS011;33183;52.290;6.144;2022-12-10T04:48:48;6.75;;;5.78;;
47431;SDS011;33183;52.290;6.144;2022-12-10T04:51:14;6.13;;;4.85;;
47431;SDS011;33183;52.290;6.144;2022-12-10T04:53:39;6.43;;;5.72;;
47431;SDS011;33183;52.290;6.144;2022-12-10T04:56:04;5.57;;;4.95;;
47431;SDS011;33183;52.290;6.144;2022-12-10T04:58:31;5.25;;;4.47;;
47431;SDS011;33183;52.290;6.144;2022-12-10T05:01:01;6.82;;;5.30;;
47431;SDS011;33183;52.290;6.144;2022-12-10T05:03:30;6.85;;;5.82;;
47431;SDS011;33183;52.290;6.144;2022-12-10T05:05:55;7.68;;;4.95;;
47431;SDS011;33183;52.290;6.144;2022-12-10T05:08:21;6.75;;;5.40;;
47431;SDS011;33183;52.290;6.144;2022-12-10T05:10:46;6.20;;;4.80;;
47431;SDS011;33183;52.290;6.144;2022-12-10T05:13:12;6.60;;;5.65;;
47431;SDS011;33183;52.290;6.144;2022-12-10T05:15:38;6.25;;;5.30;;
47431;SDS011;33183;52.290;6.144;2022-12-10T05:18:03;5.55;;;5.05;;
47431;SDS011;33183;52.290;6.144;2022-12-10T05:20:29;6.03;;;5.18;;
47431;SDS011;33183;52.290;6.144;2022-12-10T05:22:54;6.43;;;5.40;;
47431;SDS011;33183;52.290;6.144;2022-12-10T05:25:38;6.05;;;5.10;;
47431;SDS011;33183;52.290;6.144;2022-12-10T05:28:18;5.90;;;5.18;;
47431;SDS011;33183;52.290;6.144;2022-12-10T05:30:44;5.28;;;4.75;;
47431;SDS011;33183;52.290;6.144;2022-12-10T05:33:09;6.38;;;4.72;;
47431;SDS011;33183;52.290;6.144;2022-12-10T05:35:35;7.00;;;5.85;;
47431;SDS011;33183;52.290;6.144;2022-12-10T05:38:00;6.88;;;5.45;;
47431;SDS011;33183;52.290;6.144;2022-12-10T05:40:25;7.13;;;5.25;;
47431;SDS011;33183;52.290;6.144;2022-12-10T05:42:50;7.05;;;5.30;;
47431;SDS011;33183;52.290;6.144;2022-12-10T05:45:16;5.38;;;4.82;;
47431;SDS011;33183;52.290;6.144;2022-12-10T05:47:41;7.75;;;6.18;;
47431;SDS011;33183;52.290;6.144;2022-12-10T05:50:06;5.57;;;4.93;;
47431;SDS011;33183;52.290;6.144;2022-12-10T05:52:32;5.70;;;5.07;;
47431;SDS011;33183;52.290;6.144;2022-12-10T05:54:57;7.18;;;5.18;;
47431;SDS011;33183;52.290;6.144;2022-12-10T05:57:22;6.25;;;5.47;;
47431;SDS011;33183;52.290;6.144;2022-12-10T05:59:48;6.45;;;5.45;;
47431;SDS011;33183;52.290;6.144;2022-12-10T06:02:13;6.70;;;5.65;;
47431;SDS011;33183;52.290;6.144;2022-12-10T06:04:38;6.28;;;5.50;;
47431;SDS011;33183;52.290;6.144;2022-12-10T06:07:03;6.78;;;5.95;;
47431;SDS011;33183;52.290;6.144;2022-12-10T06:09:29;6.75;;;5.50;;
47431;SDS011;33183;52.290;6.144;2022-12-10T06:11:54;5.95;;;5.10;;
47431;SDS011;33183;52.290;6.144;2022-12-10T06:14:19;6.18;;;5.57;;
47431;SDS011;33183;52.290;6.144;2022-12-10T06:16:44;6.47;;;5.40;;
47431;SDS011;33183;52.290;6.144;2022-12-10T06:19:10;5.35;;;4.85;;
47431;SDS011;33183;52.290;6.144;2022-12-10T06:21:35;9.15;;;6.18;;
47431;SDS011;33183;52.290;6.144;2022-12-10T06:24:00;6.35;;;5.47;;
47431;SDS011;33183;52.290;6.144;2022-12-10T06:26:26;6.40;;;5.30;;
47431;SDS011;33183;52.290;6.144;2022-12-10T06:28:51;6.32;;;4.95;;
47431;SDS011;33183;52.290;6.144;2022-12-10T06:31:17;7.13;;;5.70;;
47431;SDS011;33183;52.290;6.144;2022-12-10T06:33:43;6.93;;;5.82;;
47431;SDS011;33183;52.290;6.144;2022-12-10T06:36:09;9.43;;;5.63;;
47431;SDS011;33183;52.290;6.144;2022-12-10T06:38:35;6.57;;;5.18;;
47431;SDS011;33183;52.290;6.144;2022-12-10T06:41:03;6.50;;;5.15;;
47431;SDS011;33183;52.290;6.144;2022-12-10T06:43:29;6.25;;;5.43;;
47431;SDS011;33183;52.290;6.144;2022-12-10T06:45:54;6.97;;;5.25;;
47431;SDS011;33183;52.290;6.144;2022-12-10T06:48:20;6.57;;;5.97;;
47431;SDS011;33183;52.290;6.144;2022-12-10T06:50:45;6.63;;;5.28;;
47431;SDS011;33183;52.290;6.144;2022-12-10T06:53:10;7.80;;;6.13;;
47431;SDS011;33183;52.290;6.144;2022-12-10T06:55:36;6.90;;;5.55;;
47431;SDS011;33183;52.290;6.144;2022-12-10T06:58:03;6.45;;;5.72;;
47431;SDS011;33183;52.290;6.144;2022-12-10T07:00:28;6.72;;;5.40;;
47431;SDS011;33183;52.290;6.144;2022-12-10T07:02:53;7.22;;;5.82;;
47431;SDS011;33183;52.290;6.144;2022-12-10T07:05:19;6.85;;;5.63;;
47431;SDS011;33183;52.290;6.144;2022-12-10T07:07:44;6.75;;;5.90;;
47431;SDS011;33183;52.290;6.144;2022-12-10T07:10:09;7.47;;;5.75;;
47431;SDS011;33183;52.290;6.144;2022-12-10T07:12:34;6.65;;;5.70;;
47431;SDS011;33183;52.290;6.144;2022-12-10T07:15:00;7.97;;;6.38;;
47431;SDS011;33183;52.290;6.144;2022-12-10T07:17:25;7.85;;;6.03;;
47431;SDS011;33183;52.290;6.144;2022-12-10T07:19:50;7.05;;;5.68;;
47431;SDS011;33183;52.290;6.144;2022-12-10T07:22:16;8.05;;;6.43;;
47431;SDS011;33183;52.290;6.144;2022-12-10T07:24:42;7.78;;;6.03;;
47431;SDS011;33183;52.290;6.144;2022-12-10T07:27:07;7.65;;;5.95;;
47431;SDS011;33183;52.290;6.144;2022-12-10T07:29:33;8.57;;;6.50;;
47431;SDS011;33183;52.290;6.144;2022-12-10T07:31:58;7.90;;;5.95;;
47431;SDS011;33183;52.290;6.144;2022-12-10T07:34:24;9.60;;;6.50;;
47431;SDS011;33183;52.290;6.144;2022-12-10T07:36:49;8.18;;;6.18;;
47431;SDS011;33183;52.290;6.144;2022-12-10T07:39:14;10.23;;;6.95;;
47431;SDS011;33183;52.290;6.144;2022-12-10T07:41:48;10.25;;;6.65;;
47431;SDS011;33183;52.290;6.144;2022-12-10T07:44:18;8.90;;;6.97;;
47431;SDS011;33183;52.290;6.144;2022-12-10T07:46:46;11.55;;;7.32;;
47431;SDS011;33183;52.290;6.144;2022-12-10T07:49:11;9.10;;;6.60;;
47431;SDS011;33183;52.290;6.144;2022-12-10T07:51:38;9.60;;;7.05;;
47431;SDS011;33183;52.290;6.144;2022-12-10T07:54:03;9.25;;;7.15;;
47431;SDS011;33183;52.290;6.144;2022-12-10T07:56:28;11.85;;;7.80;;
47431;SDS011;33183;52.290;6.144;2022-12-10T07:58:54;9.65;;;7.15;;
47431;SDS011;33183;52.290;6.144;2022-12-10T08:01:20;8.82;;;6.03;;
47431;SDS011;33183;52.290;6.144;2022-12-10T08:03:47;9.70;;;6.10;;
47431;SDS011;33183;52.290;6.144;2022-12-10T08:06:14;9.70;;;6.88;;
47431;SDS011;33183;52.290;6.144;2022-12-10T08:08:40;9.23;;;7.38;;
47431;SDS011;33183;52.290;6.144;2022-12-10T08:11:06;12.02;;;7.47;;
47431;SDS011;33183;52.290;6.144;2022-12-10T08:13:32;11.48;;;7.40;;
47431;SDS011;33183;52.290;6.144;2022-12-10T08:16:05;10.25;;;6.80;;
47431;SDS011;33183;52.290;6.144;2022-12-10T08:18:32;10.38;;;7.70;;
47431;SDS011;33183;52.290;6.144;2022-12-10T08:20:58;8.93;;;6.47;;
47431;SDS011;33183;52.290;6.144;2022-12-10T08:23:28;11.75;;;7.35;;
47431;SDS011;33183;52.290;6.144;2022-12-10T08:25:53;9.65;;;7.13;;
47431;SDS011;33183;52.290;6.144;2022-12-10T08:28:19;9.30;;;7.43;;
47431;SDS011;33183;52.290;6.144;2022-12-10T08:30:47;9.75;;;7.13;;
47431;SDS011;33183;52.290;6.144;2022-12-10T08:35:38;10.77;;;7.82;;
47431;SDS011;33183;52.290;6.144;2022-12-10T08:38:04;10.05;;;7.13;;
47431;SDS011;33183;52.290;6.144;2022-12-10T08:40:29;10.93;;;7.85;;
47431;SDS011;33183;52.290;6.144;2022-12-10T08:42:54;10.43;;;7.82;;
47431;SDS011;33183;52.290;6.144;2022-12-10T08:45:19;12.05;;;7.45;;
47431;SDS011;33183;52.290;6.144;2022-12-10T08:47:45;10.25;;;7.28;;
47431;SDS011;33183;52.290;6.144;2022-12-10T08:50:10;13.05;;;8.27;;
47431;SDS011;33183;52.290;6.144;2022-12-10T08:52:35;9.68;;;7.55;;
47431;SDS011;33183;52.290;6.144;2022-12-10T08:55:01;10.80;;;7.90;;
47431;SDS011;33183;52.290;6.144;2022-12-10T08:57:27;13.15;;;9.35;;
47431;SDS011;33183;52.290;6.144;2022-12-10T08:59:52;12.05;;;8.57;;
47431;SDS011;33183;52.290;6.144;2022-12-10T09:02:18;10.50;;;7.63;;
47431;SDS011;33183;52.290;6.144;2022-12-10T09:04:43;11.52;;;7.97;;
47431;SDS011;33183;52.290;6.144;2022-12-10T09:07:11;11.95;;;7.95;;
47431;SDS011;33183;52.290;6.144;2022-12-10T09:09:36;11.82;;;8.23;;
47431;SDS011;33183;52.290;6.144;2022-12-10T09:12:02;12.05;;;9.13;;
47431;SDS011;33183;52.290;6.144;2022-12-10T09:14:27;12.07;;;9.27;;
47431;SDS011;33183;52.290;6.144;2022-12-10T09:16:52;11.55;;;8.52;;
47431;SDS011;33183;52.290;6.144;2022-12-10T09:19:18;12.93;;;8.70;;
47431;SDS011;33183;52.290;6.144;2022-12-10T09:21:43;14.20;;;9.45;;
47431;SDS011;33183;52.290;6.144;2022-12-10T09:24:08;14.75;;;10.40;;
47431;SDS011;33183;52.290;6.144;2022-12-10T09:26:34;17.42;;;11.50;;
47431;SDS011;33183;52.290;6.144;2022-12-10T09:28:59;20.25;;;11.48;;
47431;SDS011;33183;52.290;6.144;2022-12-10T09:31:25;16.55;;;10.98;;
47431;SDS011;33183;52.290;6.144;2022-12-10T09:33:51;17.33;;;10.93;;
47431;SDS011;33183;52.290;6.144;2022-12-10T09:36:17;16.92;;;11.63;;
47431;SDS011;33183;52.290;6.144;2022-12-10T09:38:43;15.60;;;11.13;;
47431;SDS011;33183;52.290;6.144;2022-12-10T09:44:10;16.10;;;10.68;;
47431;SDS011;33183;52.290;6.144;2022-12-10T09:49:17;20.75;;;12.00;;
47431;SDS011;33183;52.290;6.144;2022-12-10T09:51:50;17.25;;;11.57;;
47431;SDS011;33183;52.290;6.144;2022-12-10T09:54:20;18.50;;;13.05;;
47431;SDS011;33183;52.290;6.144;2022-12-10T09:56:47;20.30;;;12.45;;
47431;SDS011;33183;52.290;6.144;2022-12-10T09:59:16;16.30;;;11.52;;
47431;SDS011;33183;52.290;6.144;2022-12-10T10:01:45;19.88;;;12.27;;
47431;SDS011;33183;52.290;6.144;2022-12-10T10:04:12;18.98;;;11.77;;
47431;SDS011;33183;52.290;6.144;2022-12-10T10:06:37;20.42;;;12.50;;
47431;SDS011;33183;52.290;6.144;2022-12-10T10:09:03;18.42;;;12.70;;
47431;SDS011;33183;52.290;6.144;2022-12-10T10:11:30;14.65;;;10.82;;
47431;SDS011;33183;52.290;6.144;2022-12-10T10:14:10;15.27;;;11.00;;
47431;SDS011;33183;52.290;6.144;2022-12-10T10:16:48;17.58;;;11.98;;
47431;SDS011;33183;52.290;6.144;2022-12-10T10:19:17;17.80;;;12.23;;
47431;SDS011;33183;52.290;6.144;2022-12-10T10:21:49;19.08;;;12.05;;
47431;SDS011;33183;52.290;6.144;2022-12-10T10:24:17;18.60;;;11.73;;
47431;SDS011;33183;52.290;6.144;2022-12-10T10:26:45;18.52;;;11.32;;
47431;SDS011;33183;52.290;6.144;2022-12-10T10:29:11;15.13;;;11.05;;
47431;SDS011;33183;52.290;6.144;2022-12-10T10:31:39;17.08;;;12.65;;
47431;SDS011;33183;52.290;6.144;2022-12-10T10:34:17;17.75;;;11.30;;
47431;SDS011;33183;52.290;6.144;2022-12-10T10:36:44;18.00;;;11.90;;
47431;SDS011;33183;52.290;6.144;2022-12-10T10:39:11;18.25;;;11.52;;
47431;SDS011;33183;52.290;6.144;2022-12-10T10:41:50;17.85;;;11.38;;
47431;SDS011;33183;52.290;6.144;2022-12-10T10:44:21;16.08;;;10.75;;
47431;SDS011;33183;52.290;6.144;2022-12-10T10:46:48;17.75;;;11.57;;
47431;SDS011;33183;52.290;6.144;2022-12-10T10:49:23;15.60;;;10.85;;
47431;SDS011;33183;52.290;6.144;2022-12-10T10:51:49;16.40;;;11.73;;
47431;SDS011;33183;52.290;6.144;2022-12-10T10:54:35;17.10;;;11.90;;
47431;SDS011;33183;52.290;6.144;2022-12-10T10:57:04;18.33;;;12.65;;
47431;SDS011;33183;52.290;6.144;2022-12-10T10:59:35;18.25;;;11.05;;
47431;SDS011;33183;52.290;6.144;2022-12-10T11:02:13;18.35;;;11.63;;
47431;SDS011;33183;52.290;6.144;2022-12-10T11:05:01;15.55;;;10.57;;
47431;SDS011;33183;52.290;6.144;2022-12-10T11:07:35;17.88;;;12.65;;
47431;SDS011;33183;52.290;6.144;2022-12-10T11:10:14;17.10;;;11.52;;
47431;SDS011;33183;52.290;6.144;2022-12-10T11:13:04;18.85;;;12.65;;
47431;SDS011;33183;52.290;6.144;2022-12-10T11:15:36;15.38;;;11.35;;
47431;SDS011;33183;52.290;6.144;2022-12-10T11:18:20;16.65;;;11.73;;
47431;SDS011;33183;52.290;6.144;2022-12-10T11:21:15;15.95;;;11.88;;
47431;SDS011;33183;52.290;6.144;2022-12-10T11:23:46;17.02;;;12.65;;
47431;SDS011;33183;52.290;6.144;2022-12-10T11:37:36;20.75;;;12.70;;
47431;SDS011;33183;52.290;6.144;2022-12-10T11:40:12;14.82;;;11.02;;
47431;SDS011;33183;52.290;6.144;2022-12-10T11:43:03;17.90;;;12.63;;
47431;SDS011;33183;52.290;6.144;2022-12-10T11:45:33;15.07;;;11.35;;
47431;SDS011;33183;52.290;6.144;2022-12-10T11:50:53;14.68;;;10.95;;
47431;SDS011;33183;52.290;6.144;2022-12-10T11:59:23;15.93;;;11.38;;
47431;SDS011;33183;52.290;6.144;2022-12-10T12:05:06;12.93;;;10.80;;
47431;SDS011;33183;52.290;6.144;2022-12-10T12:12:56;16.13;;;10.52;;
47431;SDS011;33183;52.290;6.144;2022-12-10T12:15:40;16.98;;;11.48;;
47431;SDS011;33183;52.290;6.144;2022-12-10T12:23:29;13.43;;;10.18;;
47431;SDS011;33183;52.290;6.144;2022-12-10T12:26:00;15.23;;;11.13;;
47431;SDS011;33183;52.290;6.144;2022-12-10T12:31:03;15.68;;;11.23;;
47431;SDS011;33183;52.290;6.144;2022-12-10T12:33:41;15.73;;;10.70;;
47431;SDS011;33183;52.290;6.144;2022-12-10T12:36:10;14.45;;;11.02;;
47431;SDS011;33183;52.290;6.144;2022-12-10T12:38:42;16.00;;;11.50;;
47431;SDS011;33183;52.290;6.144;2022-12-10T12:41:13;14.98;;;10.68;;
47431;SDS011;33183;52.290;6.144;2022-12-10T12:43:48;14.65;;;11.30;;
47431;SDS011;33183;52.290;6.144;2022-12-10T12:47:01;14.80;;;11.18;;
47431;SDS011;33183;52.290;6.144;2022-12-10T12:49:10;14.95;;;11.10;;
47431;SDS011;33183;52.290;6.144;2022-12-10T12:51:45;14.30;;;9.68;;
47431;SDS011;33183;52.290;6.144;2022-12-10T12:54:15;13.82;;;10.63;;
47431;SDS011;33183;52.290;6.144;2022-12-10T12:59:42;14.95;;;11.18;;
47431;SDS011;33183;52.290;6.144;2022-12-10T13:05:41;16.05;;;9.85;;
47431;SDS011;33183;52.290;6.144;2022-12-10T13:08:22;11.65;;;9.05;;
47431;SDS011;33183;52.290;6.144;2022-12-10T13:15:48;13.95;;;9.98;;
47431;SDS011;33183;52.290;6.144;2022-12-10T13:20:46;13.60;;;10.43;;
47431;SDS011;33183;52.290;6.144;2022-12-10T13:41:32;11.23;;;8.50;;
47431;SDS011;33183;52.290;6.144;2022-12-10T13:49:53;13.93;;;9.27;;
47431;SDS011;33183;52.290;6.144;2022-12-10T13:52:35;16.73;;;11.00;;
47431;SDS011;33183;52.290;6.144;2022-12-10T13:57:48;11.52;;;9.00;;
47431;SDS011;33183;52.290;6.144;2022-12-10T14:00:20;14.35;;;10.05;;
47431;SDS011;33183;52.290;6.144;2022-12-10T14:08:28;14.32;;;9.45;;
47431;SDS011;33183;52.290;6.144;2022-12-10T14:10:56;13.00;;;8.90;;
47431;SDS011;33183;52.290;6.144;2022-12-10T14:13:24;10.80;;;8.18;;
47431;SDS011;33183;52.290;6.144;2022-12-10T14:15:57;13.90;;;8.98;;
47431;SDS011;33183;52.290;6.144;2022-12-10T14:18:25;11.00;;;8.40;;
47431;SDS011;33183;52.290;6.144;2022-12-10T14:20:53;12.60;;;8.93;;
47431;SDS011;33183;52.290;6.144;2022-12-10T14:28:32;10.88;;;9.00;;
47431;SDS011;33183;52.290;6.144;2022-12-10T14:30:58;10.75;;;8.52;;
47431;SDS011;33183;52.290;6.144;2022-12-10T14:33:23;13.45;;;9.60;;
47431;SDS011;33183;52.290;6.144;2022-12-10T14:35:50;13.23;;;8.90;;
47431;SDS011;33183;52.290;6.144;2022-12-10T14:38:24;11.77;;;8.43;;
47431;SDS011;33183;52.290;6.144;2022-12-10T14:40:55;12.43;;;9.18;;
47431;SDS011;33183;52.290;6.144;2022-12-10T14:43:25;10.90;;;8.75;;
47431;SDS011;33183;52.290;6.144;2022-12-10T14:45:58;11.68;;;8.70;;
47431;SDS011;33183;52.290;6.144;2022-12-10T14:48:24;11.23;;;8.55;;
47431;SDS011;33183;52.290;6.144;2022-12-10T14:50:50;12.45;;;9.13;;
47431;SDS011;33183;52.290;6.144;2022-12-10T14:53:21;14.90;;;10.20;;
47431;SDS011;33183;52.290;6.144;2022-12-10T14:55:49;12.55;;;9.40;;
47431;SDS011;33183;52.290;6.144;2022-12-10T14:59:00;11.40;;;8.70;;
47431;SDS011;33183;52.290;6.144;2022-12-10T15:01:13;11.50;;;8.20;;
47431;SDS011;33183;52.290;6.144;2022-12-10T15:03:51;12.40;;;8.80;;
47431;SDS011;33183;52.290;6.144;2022-12-10T15:06:18;10.80;;;8.10;;
47431;SDS011;33183;52.290;6.144;2022-12-10T15:08:44;13.07;;;9.07;;
47431;SDS011;33183;52.290;6.144;2022-12-10T15:11:10;12.38;;;9.20;;
47431;SDS011;33183;52.290;6.144;2022-12-10T15:13:41;12.10;;;8.75;;
47431;SDS011;33183;52.290;6.144;2022-12-10T15:16:18;12.35;;;8.98;;
47431;SDS011;33183;52.290;6.144;2022-12-10T15:18:45;11.10;;;8.32;;
47431;SDS011;33183;52.290;6.144;2022-12-10T15:21:15;12.35;;;8.60;;
47431;SDS011;33183;52.290;6.144;2022-12-10T15:23:44;10.27;;;7.93;;
47431;SDS011;33183;52.290;6.144;2022-12-10T15:26:23;12.05;;;8.07;;
47431;SDS011;33183;52.290;6.144;2022-12-10T15:28:50;12.57;;;8.38;;
47431;SDS011;33183;52.290;6.144;2022-12-10T15:31:21;11.90;;;8.70;;
47431;SDS011;33183;52.290;6.144;2022-12-10T15:33:56;10.65;;;7.97;;
47431;SDS011;33183;52.290;6.144;2022-12-10T15:36:28;11.10;;;8.18;;
47431;SDS011;33183;52.290;6.144;2022-12-10T15:39:19;9.52;;;7.03;;
47431;SDS011;33183;52.290;6.144;2022-12-10T15:41:56;9.20;;;6.75;;
47431;SDS011;33183;52.290;6.144;2022-12-10T15:49:33;8.57;;;6.82;;
47431;SDS011;33183;52.290;6.144;2022-12-10T15:51:59;11.05;;;7.60;;
47431;SDS011;33183;52.290;6.144;2022-12-10T15:54:30;8.85;;;7.22;;
47431;SDS011;33183;52.290;6.144;2022-12-10T15:56:58;10.65;;;6.80;;
47431;SDS011;33183;52.290;6.144;2022-12-10T15:59:24;9.60;;;6.65;;
47431;SDS011;33183;52.290;6.144;2022-12-10T16:01:50;9.60;;;6.85;;
47431;SDS011;33183;52.290;6.144;2022-12-10T16:04:15;7.47;;;6.30;;
47431;SDS011;33183;52.290;6.144;2022-12-10T16:06:41;11.40;;;7.05;;
47431;SDS011;33183;52.290;6.144;2022-12-10T16:09:06;8.43;;;6.60;;
47431;SDS011;33183;52.290;6.144;2022-12-10T16:11:32;7.47;;;6.28;;
47431;SDS011;33183;52.290;6.144;2022-12-10T16:13:58;8.45;;;6.80;;
47431;SDS011;33183;52.290;6.144;2022-12-10T16:16:23;8.23;;;6.38;;
47431;SDS011;33183;52.290;6.144;2022-12-10T16:18:49;8.43;;;6.40;;
47431;SDS011;33183;52.290;6.144;2022-12-10T16:21:14;6.63;;;5.85;;
47431;SDS011;33183;52.290;6.144;2022-12-10T16:23:40;7.78;;;6.40;;
47431;SDS011;33183;52.290;6.144;2022-12-10T16:28:37;6.68;;;5.72;;
47431;SDS011;33183;52.290;6.144;2022-12-10T16:31:03;8.15;;;5.90;;
47431;SDS011;33183;52.290;6.144;2022-12-10T16:33:28;6.43;;;5.63;;
47431;SDS011;33183;52.290;6.144;2022-12-10T16:35:54;7.88;;;6.10;;
47431;SDS011;33183;52.290;6.144;2022-12-10T16:38:20;8.60;;;6.38;;
47431;SDS011;33183;52.290;6.144;2022-12-10T16:40:46;7.35;;;5.88;;
47431;SDS011;33183;52.290;6.144;2022-12-10T16:43:21;8.48;;;6.13;;
47431;SDS011;33183;52.290;6.144;2022-12-10T16:45:48;7.18;;;5.90;;
47431;SDS011;33183;52.290;6.144;2022-12-10T16:48:14;8.45;;;6.40;;
47431;SDS011;33183;52.290;6.144;2022-12-10T16:50:39;9.05;;;6.18;;
47431;SDS011;33183;52.290;6.144;2022-12-10T16:53:27;8.98;;;6.82;;
47431;SDS011;33183;52.290;6.144;2022-12-10T16:55:53;8.02;;;6.55;;
47431;SDS011;33183;52.290;6.144;2022-12-10T16:58:19;8.40;;;6.43;;
47431;SDS011;33183;52.290;6.144;2022-12-10T17:00:45;9.73;;;7.03;;